Wolf Creek Pass, CO

6:39 PM MDT on July 26, 2017 (GMT -0600)
Wolf Creek Pass

Weather History for KCPW - May, 2014

Change the Weather History Date:

Wednesday, May 7, 2014

  Actual Average (KALS) Record (KALS)
Temperature  
Mean Temperature 26 °F -  
Max Temperature 32 °F 63 °F 81 °F (1989)
Min Temperature 19 °F 30 °F 13 °F (1975)
Degree Days  
Heating Degree Days 40    
Moisture  
Dew Point 15 °F    
Average Humidity 67    
Maximum Humidity 100    
Minimum Humidity 37    
Precipitation  
Precipitation 0.12 in - - ()
Sea Level Pressure  
Sea Level Pressure 29.95 in    
Wind  
Wind Speed 18 mph (SW)    
Max Wind Speed 32 mph    
Max Gust Speed 46 mph    
Visibility 7 miles    
Events Fog , Snow    
Averages and records for this station are not official NWS values.
T = Trace of Precipitation, MM = Missing Value Source: NWS Daily Summary

Daily Weather History Graph

Daily Weather History Graph

Search for Another Location

Airport or City:

Trip Planner

Search our weather history database for the weather conditions in past years. The results will help you decide how hot, cold, wet, or windy it might be!

Date:

Astronomy

May. 07, 2014 Rise Set
Actual Time 6:05 AM MDT 8:02 PM MDT
Civil Twilight 5:36 AM MDT 8:31 PM MDT
Nautical Twilight 5:02 AM MDT 9:06 PM MDT
Astronomical Twilight 4:24 AM MDT 9:43 PM MDT
Moon 1:18 PM MDT (5/7) 1:57 AM MDT (5/7)
Length of Visible Light 14h 54m
Length of Day
13h 57m
First Quarter, 56% of the Moon is Illuminated
May 7
First Quarter
May 14
Full
May 21
Last Quarter
May 28
New
Jun 5
First Quarter

Hourly Weather History & Observations

Time (MDT) Temp. Windchill Dew Point Humidity Pressure Visibility Wind Dir Wind Speed Gust Speed Precip Events Conditions
12:18 AM 30.2 °F 19.8 °F 6.8 °F 37% 30.00 in 10.0 mi SW 13.8 mph 24.2 mph N/A   Overcast
12:39 AM 30.2 °F 18.9 °F 6.8 °F 37% 30.00 in 10.0 mi SW 16.1 mph 23.0 mph N/A   Overcast
12:59 AM 30.2 °F 20.2 °F 6.8 °F 37% 30.00 in 10.0 mi SW 12.7 mph 21.9 mph N/A   Overcast
1:19 AM 30.2 °F 17.4 °F 8.6 °F 40% 29.99 in 10.0 mi SSW 20.7 mph 27.6 mph N/A   Overcast
1:39 AM 30.2 °F 17.8 °F 8.6 °F 40% 29.97 in 10.0 mi SW 19.6 mph 32.2 mph N/A   Overcast
1:58 AM 30.2 °F 17.8 °F 6.8 °F 37% 29.98 in 10.0 mi SW 19.6 mph 32.2 mph N/A   Overcast
2:18 AM 28.4 °F 16.2 °F 8.6 °F 43% 29.98 in 10.0 mi SW 17.3 mph 24.2 mph N/A   Overcast
2:40 AM 28.4 °F 17.0 °F 8.6 °F 43% 29.98 in 10.0 mi SW 15.0 mph 21.9 mph N/A   Overcast
2:58 AM 28.4 °F 19.1 °F 8.6 °F 43% 29.98 in 10.0 mi SW 10.4 mph 21.9 mph N/A   Overcast
3:20 AM 28.4 °F 19.1 °F 8.6 °F 43% 29.97 in 10.0 mi SSW 10.4 mph 18.4 mph N/A   Overcast
3:39 AM 28.4 °F 19.1 °F 8.6 °F 43% 29.97 in 10.0 mi SW 10.4 mph 18.4 mph N/A   Overcast
3:57 AM 28.4 °F 20.4 °F 8.6 °F 43% 29.97 in 10.0 mi SSW 8.1 mph 21.9 mph N/A   Overcast
4:19 AM 28.4 °F 18.5 °F 8.6 °F 43% 29.98 in 10.0 mi SSW 11.5 mph 18.4 mph N/A   Overcast
4:40 AM 26.6 °F 14.3 °F 8.6 °F 47% 29.97 in 10.0 mi SSW 16.1 mph 23.0 mph N/A   Overcast
5:00 AM 26.6 °F 13.8 °F 8.6 °F 47% 29.97 in 10.0 mi SW 17.3 mph 24.2 mph N/A   Overcast
5:18 AM 26.6 °F 14.3 °F 8.6 °F 47% 29.97 in 10.0 mi SW 16.1 mph 21.9 mph N/A   Overcast
5:40 AM 26.6 °F 14.7 °F 8.6 °F 47% 29.97 in 10.0 mi SW 15.0 mph 25.3 mph N/A   Overcast
5:46 AM 26.6 °F 13.8 °F 8.6 °F 47% 29.97 in 10.0 mi SW 17.3 mph 24.2 mph N/A   Overcast
6:19 AM 26.6 °F 14.7 °F 8.6 °F 47% 29.97 in 10.0 mi SW 15.0 mph 23.0 mph N/A   Overcast
6:29 AM 26.6 °F 12.7 °F 8.6 °F 47% 29.97 in 10.0 mi SW 20.7 mph 26.5 mph N/A   Overcast
6:46 AM 26.6 °F 12.7 °F 8.6 °F 47% 29.97 in 10.0 mi SW 20.7 mph 27.6 mph N/A   Overcast
7:12 AM 26.6 °F 10.6 °F 10.4 °F 51% 29.96 in 10.0 mi WSW 28.8 mph 34.5 mph N/A   Overcast
7:39 AM 28.4 °F 15.4 °F 12.2 °F 51% 29.97 in 10.0 mi SW 19.6 mph 32.2 mph N/A   Overcast
8:01 AM 28.4 °F 14.4 °F 12.2 °F 51% 29.96 in 10.0 mi SW 23.0 mph 36.8 mph N/A   Overcast
8:09 AM 28.4 °F 13.3 °F 12.2 °F 51% 29.96 in 10.0 mi SW 27.6 mph 40.3 mph N/A   Overcast
8:40 AM 28.4 °F 14.1 °F 12.2 °F 51% 29.97 in 10.0 mi SW 24.2 mph 35.7 mph N/A   Overcast
8:57 AM 28.4 °F 14.1 °F 12.2 °F 51% 29.97 in 10.0 mi SW 24.2 mph 34.5 mph N/A   Overcast
9:17 AM 28.4 °F 15.4 °F 12.2 °F 51% 29.96 in 10.0 mi SW 19.6 mph 28.8 mph N/A   Overcast
9:56 AM 30.2 °F 18.5 °F 14.0 °F 51% 29.96 in 10.0 mi SW 17.3 mph 34.5 mph N/A   Overcast
10:20 AM 30.2 °F 16.2 °F 14.0 °F 51% 29.95 in 10.0 mi SSW 25.3 mph 36.8 mph N/A   Mostly Cloudy
10:39 AM 30.2 °F 20.2 °F 14.0 °F 51% 29.96 in 10.0 mi SSW 12.7 mph 31.1 mph N/A   Scattered Clouds
11:21 AM 30.2 °F 16.8 °F 15.8 °F 55% 29.96 in 10.0 mi SW 23.0 mph 33.4 mph N/A   Overcast
11:39 AM 30.2 °F 20.2 °F 17.6 °F 60% 29.96 in 10.0 mi SW 12.7 mph 33.4 mph N/A   Overcast
12:01 PM 30.2 °F 15.9 °F 17.6 °F 60% 29.96 in 10.0 mi SSW 26.5 mph 36.8 mph N/A   Overcast
12:18 PM 30.2 °F 20.2 °F 17.6 °F 60% 29.95 in 10.0 mi SW 12.7 mph 32.2 mph N/A   Overcast
12:39 PM 30.2 °F 18.9 °F 17.6 °F 60% 29.95 in 10.0 mi SSW 16.1 mph 29.9 mph N/A   Overcast
1:00 PM 32.0 °F 19.5 °F 17.6 °F 55% 29.94 in 10.0 mi SSW 21.9 mph 35.7 mph N/A   Overcast
1:17 PM 32.0 °F 17.2 °F 14.0 °F 48% 29.92 in 10.0 mi SW 32.2 mph 46.0 mph N/A   Mostly Cloudy
1:32 PM 30.2 °F 17.4 °F 14.0 °F 51% 29.92 in 10.0 mi SSW 20.7 mph 33.4 mph N/A   Overcast
2:01 PM 30.2 °F 17.1 °F 14.0 °F 51% 29.92 in 10.0 mi SSW 21.9 mph 36.8 mph N/A   Mostly Cloudy
2:21 PM 30.2 °F 18.5 °F 15.8 °F 55% 29.92 in 10.0 mi SSW 17.3 mph 32.2 mph N/A   Overcast
2:37 PM 30.2 °F 18.5 °F 14.0 °F 51% 29.91 in 10.0 mi SSW 17.3 mph 34.5 mph N/A   Overcast
2:57 PM 28.4 °F 15.1 °F 14.0 °F 55% 29.91 in 10.0 mi SW 20.7 mph 32.2 mph N/A   Overcast
3:13 PM 28.4 °F 15.8 °F 14.0 °F 55% 29.92 in 10.0 mi SSW 18.4 mph 33.4 mph N/A   Overcast
3:40 PM 24.8 °F 10.3 °F 21.2 °F 86% 29.92 in 0.8 mi SW 20.7 mph 31.1 mph N/A Snow Light Snow
4:00 PM 23.0 °F 8.7 °F 21.2 °F 93% 29.92 in 0.8 mi SW 18.4 mph 27.6 mph N/A Snow Light Snow
4:20 PM 23.0 °F 8.3 °F 21.2 °F 93% 29.92 in 1.0 mi SW 19.6 mph 29.9 mph N/A Snow Light Snow
4:36 PM 21.2 °F 6.8 °F 21.2 °F 100% 29.92 in 0.2 mi SW 17.3 mph 29.9 mph 0.01 in Snow Heavy Snow
4:50 PM 21.2 °F 9.5 °F 21.2 °F 100% 29.93 in 0.2 mi SW 11.5 mph 20.7 mph 0.03 in Snow Heavy Snow
5:21 PM 21.2 °F - 21.2 °F 100% 29.92 in 0.2 mi North - - 0.04 in Snow Heavy Snow
5:40 PM 21.2 °F 4.9 °F 21.2 °F 100% 29.92 in 0.2 mi SW 23.0 mph - 0.05 in Snow Snow
5:55 PM 21.2 °F - 21.2 °F 100% 29.92 in 0.2 mi North - - 0.07 in Snow Heavy Snow
6:20 PM 21.2 °F - 21.2 °F 100% 29.93 in 0.2 mi North - - 0.01 in Snow Light Snow
6:40 PM 19.4 °F 6.6 °F 19.4 °F 100% 29.94 in 0.2 mi SW 12.7 mph 24.2 mph 0.01 in Snow Light Snow
7:00 PM 19.4 °F 7.9 °F 19.4 °F 100% 29.94 in 0.2 mi SSW 10.4 mph 19.6 mph N/A Snow Snow
7:21 PM 19.4 °F 6.0 °F 19.4 °F 100% 29.93 in 0.2 mi SW 13.8 mph - N/A Fog Light Freezing Fog
7:41 PM 19.4 °F 6.0 °F 19.4 °F 100% 29.94 in 0.2 mi SW 13.8 mph 19.6 mph N/A Fog Light Freezing Fog
7:59 PM 19.4 °F 4.1 °F 19.4 °F 100% 29.92 in 0.2 mi SW 18.4 mph 24.2 mph N/A Snow Light Snow
8:21 PM 19.4 °F 1.4 °F 19.4 °F 100% 29.91 in 0.2 mi SW 26.5 mph 32.2 mph N/A Snow Snow
8:37 PM 19.4 °F 2.8 °F 19.4 °F 100% 29.92 in 0.2 mi SW 21.9 mph 29.9 mph N/A Snow Heavy Snow
8:54 PM 19.4 °F 1.8 °F 19.4 °F 100% 29.93 in 0.5 mi SW 25.3 mph 35.7 mph N/A Snow Snow
9:20 PM 19.4 °F - 19.4 °F 100% 29.95 in 0.2 mi North - - N/A Snow Heavy Snow
9:39 PM 19.4 °F 2.1 °F 19.4 °F 100% 29.95 in 0.2 mi SW 24.2 mph 28.8 mph 0.01 in Snow Light Snow
10:01 PM 19.4 °F - 19.4 °F 100% 29.97 in 0.5 mi North - - N/A Snow Light Snow
10:06 PM 19.4 °F 2.5 °F 19.4 °F 100% 29.97 in 0.8 mi SW 23.0 mph - N/A Snow Light Snow
10:39 PM 19.4 °F 1.4 °F 19.4 °F 100% 29.97 in 0.5 mi SW 26.5 mph 29.9 mph N/A Fog Light Freezing Fog
10:58 PM 19.4 °F 2.1 °F 19.4 °F 100% 29.97 in 10.0 mi SW 24.2 mph 32.2 mph N/A   Overcast
11:13 PM 19.4 °F 2.8 °F 19.4 °F 100% 29.97 in 1.0 mi SW 21.9 mph 29.9 mph N/A   Overcast
11:40 PM 19.4 °F 2.5 °F 19.4 °F 100% 29.97 in 1.5 mi SW 23.0 mph 26.5 mph N/A Snow Light Snow